Terminal Aerodrome Forecast
Issued by NWS Quad Cities IA IL

Home | Current Version | Previous Version | Text Only | Print | Product List | Glossary On
Versions: 1 2 3 4 5 6 7 8 9 10 11 12 13 14 15 16 17 18 19 20 21 22 23 24
000
FTUS43 KDVN 282300
TAFMLI
TAF
KMLI 282322Z 2900/2924 11006KT P6SM VCSH SCT025 OVC080
      TEMPO 2900/2901 5SM -RA BR BKN025 OVC080
     FM290800 14005KT 5SM BR VCSH BKN050
     FM291500 17008KT P6SM VCTS FEW100CB BKN200 PROB30 2918/2924 2SM
      TSRA BKN030CB OVC050=

USA.gov is the U.S. government's official web portal to all federal, state and local government web resources and services.